createdAt,value
2019-02-24T00:03:13.470Z,6.43
2019-02-24T00:08:18.353Z,6.20
2019-02-24T00:13:23.278Z,5.77
2019-02-24T00:18:28.435Z,6.57
2019-02-24T00:23:33.711Z,5.97
2019-02-24T00:28:38.761Z,5.90
2019-02-24T00:33:43.898Z,6.17
2019-02-24T00:38:48.655Z,6.20
2019-02-24T00:43:53.738Z,6.23
2019-02-24T00:48:58.786Z,6.00
2019-02-24T00:54:03.763Z,6.73
2019-02-24T00:59:08.862Z,5.10
2019-02-24T01:04:13.648Z,5.50
2019-02-24T01:09:18.854Z,5.90
2019-02-24T01:14:23.684Z,5.00
2019-02-24T01:19:28.686Z,5.03
2019-02-24T01:24:34.080Z,4.87
2019-02-24T01:29:39.398Z,4.90
2019-02-24T01:34:44.379Z,4.33
2019-02-24T01:39:49.251Z,4.87
2019-02-24T01:44:54.092Z,4.63
2019-02-24T01:49:59.064Z,4.97
2019-02-24T01:55:04.297Z,5.13
2019-02-24T02:00:10.038Z,5.30
2019-02-24T02:05:15.005Z,5.07
2019-02-24T02:10:19.909Z,6.07
2019-02-24T02:15:24.893Z,6.17
2019-02-24T02:20:29.950Z,5.93
2019-02-24T02:25:35.191Z,5.97
2019-02-24T02:30:40.431Z,5.97
2019-02-24T02:35:45.621Z,5.97
2019-02-24T02:40:50.501Z,5.70
2019-02-24T02:45:55.336Z,6.10
2019-02-24T02:51:00.609Z,6.03
2019-02-24T02:56:05.564Z,4.93
2019-02-24T03:01:10.506Z,5.07
2019-02-24T03:06:21.085Z,4.80
2019-02-24T03:11:26.238Z,5.37
2019-02-24T03:16:31.556Z,5.50
2019-02-24T03:21:36.688Z,4.20
2019-02-24T03:26:41.641Z,5.27
2019-02-24T03:31:46.575Z,4.50
2019-02-24T03:36:52.073Z,4.50
2019-02-24T03:41:57.364Z,4.93
2019-02-24T03:47:02.358Z,4.20
2019-02-24T03:52:07.555Z,4.10
2019-02-24T03:57:12.798Z,4.83
2019-02-24T04:02:17.989Z,3.93
2019-02-24T04:07:23.753Z,4.50
2019-02-24T04:12:28.864Z,4.13
2019-02-24T04:17:33.684Z,4.00
2019-02-24T04:22:38.670Z,3.30
2019-02-24T04:27:43.821Z,3.87
2019-02-24T04:32:49.515Z,3.87
2019-02-24T04:37:54.513Z,3.17
2019-02-24T04:42:59.721Z,3.47
2019-02-24T04:48:04.883Z,3.83
2019-02-24T04:53:09.772Z,3.37
2019-02-24T04:58:14.965Z,3.73
2019-02-24T05:03:20.154Z,3.57
2019-02-24T05:08:25.272Z,4.07
2019-02-24T05:13:30.521Z,4.10
2019-02-24T05:18:35.612Z,3.73
2019-02-24T05:23:42.887Z,3.77
2019-02-24T05:28:47.573Z,4.73
2019-02-24T05:33:52.757Z,3.83
2019-02-24T05:38:57.953Z,4.03
2019-02-24T05:44:02.765Z,4.33
2019-02-24T05:49:07.945Z,4.30
2019-02-24T05:54:13.306Z,4.23
2019-02-24T05:59:18.182Z,3.50
2019-02-24T06:04:23.684Z,3.57
2019-02-24T06:09:29.171Z,4.53
2019-02-24T06:14:34.775Z,4.53
2019-02-24T06:19:40.192Z,4.27
2019-02-24T06:24:45.657Z,4.70
2019-02-24T06:29:50.620Z,4.07
2019-02-24T06:34:56.068Z,4.80
2019-02-24T06:40:01.147Z,4.40
2019-02-24T06:45:06.197Z,4.23
2019-02-24T06:50:11.269Z,5.00
2019-02-24T06:55:16.412Z,4.17
2019-02-24T07:00:21.301Z,4.03
2019-02-24T07:05:26.205Z,4.40
2019-02-24T07:10:31.114Z,4.10
2019-02-24T07:15:36.361Z,4.90
2019-02-24T07:20:41.531Z,4.53
2019-02-24T07:25:46.632Z,4.67
2019-02-24T07:30:51.799Z,4.83
2019-02-24T07:35:56.995Z,4.60
2019-02-24T07:41:02.345Z,4.97
2019-02-24T07:46:07.239Z,4.43
2019-02-24T07:51:12.548Z,5.40
2019-02-24T07:56:17.957Z,5.30
2019-02-24T08:01:23.354Z,5.50
2019-02-24T08:06:28.161Z,5.30
2019-02-24T08:11:33.553Z,4.37
2019-02-24T08:16:38.664Z,4.73
2019-02-24T08:21:43.677Z,4.10
2019-02-24T08:26:48.825Z,3.80
2019-02-24T08:31:54.073Z,4.53
2019-02-24T08:36:59.236Z,5.07
2019-02-24T08:42:04.478Z,5.20
2019-02-24T08:47:09.759Z,4.83
2019-02-24T08:52:14.980Z,4.47
2019-02-24T08:57:20.363Z,4.97
2019-02-24T09:02:25.328Z,4.37
2019-02-24T09:07:30.312Z,4.63
2019-02-24T09:12:35.208Z,5.50
2019-02-24T09:17:40.360Z,5.60
2019-02-24T09:22:45.584Z,3.90
2019-02-24T09:27:50.846Z,4.57
2019-02-24T09:32:56.254Z,4.03
2019-02-24T09:38:01.173Z,4.13
2019-02-24T09:43:06.064Z,4.33
2019-02-24T09:48:11.132Z,4.00
2019-02-24T09:53:16.076Z,3.43
2019-02-24T09:58:20.909Z,3.40
2019-02-24T10:03:26.439Z,3.10
2019-02-24T10:08:31.655Z,2.83
2019-02-24T10:13:36.484Z,2.90
2019-02-24T10:18:41.637Z,4.17
2019-02-24T10:23:46.545Z,3.80
2019-02-24T10:28:52.230Z,2.83
2019-02-24T10:33:57.100Z,4.17
2019-02-24T10:39:02.574Z,3.47
2019-02-24T10:44:07.524Z,4.20
2019-02-24T10:49:12.425Z,3.57
2019-02-24T10:54:17.940Z,3.50
2019-02-24T10:59:23.157Z,3.57
2019-02-24T11:04:27.968Z,3.13
2019-02-24T11:09:32.987Z,3.80
2019-02-24T11:14:38.088Z,4.17
2019-02-24T11:19:43.048Z,4.13
2019-02-24T11:24:48.204Z,2.97
2019-02-24T11:29:53.105Z,3.50
2019-02-24T11:34:57.936Z,3.20
2019-02-24T11:40:02.869Z,2.83
2019-02-24T11:45:07.945Z,2.60
2019-02-24T11:50:13.176Z,2.53
2019-02-24T11:55:18.262Z,2.67
2019-02-24T12:00:23.485Z,2.40
2019-02-24T12:05:28.724Z,2.57
2019-02-24T12:10:33.615Z,2.50
2019-02-24T12:15:38.799Z,2.73
2019-02-24T12:20:43.744Z,2.73
2019-02-24T12:25:48.975Z,3.20
2019-02-24T12:30:53.874Z,2.90
2019-02-24T12:35:59.085Z,2.93
2019-02-24T12:41:04.085Z,2.83
2019-02-24T12:46:09.161Z,2.97
2019-02-24T12:51:14.070Z,2.70
2019-02-24T12:56:19.301Z,3.00
2019-02-24T13:01:24.295Z,2.47
2019-02-24T13:06:29.509Z,2.37
2019-02-24T13:11:34.766Z,2.70
2019-02-24T13:16:40.005Z,2.60
2019-02-24T13:21:46.456Z,1.83
2019-02-24T13:26:51.628Z,2.57
2019-02-24T13:31:56.497Z,2.80
2019-02-24T13:37:01.501Z,2.40
2019-02-24T13:42:06.817Z,2.97
2019-02-24T13:47:11.764Z,2.73
2019-02-24T13:52:17.362Z,2.83
2019-02-24T13:57:22.301Z,2.80
2019-02-24T14:02:27.170Z,3.10
2019-02-24T14:07:32.224Z,3.20
2019-02-24T14:12:37.117Z,2.60
2019-02-24T14:17:42.328Z,2.80
2019-02-24T14:22:47.553Z,2.47
2019-02-24T14:27:52.468Z,2.63
2019-02-24T14:32:57.815Z,2.10
2019-02-24T14:38:02.724Z,2.67
2019-02-24T14:43:07.917Z,2.40
2019-02-24T14:48:13.135Z,2.20
2019-02-24T14:53:18.575Z,2.10
2019-02-24T14:58:23.545Z,1.93
2019-02-24T15:03:28.976Z,2.13
2019-02-24T15:08:33.953Z,2.20
2019-02-24T15:13:39.037Z,1.97
2019-02-24T15:18:44.625Z,1.70
2019-02-24T15:23:49.518Z,2.00
2019-02-24T15:28:54.464Z,1.80
2019-02-24T15:33:59.662Z,2.23
2019-02-24T15:39:05.975Z,2.17
2019-02-24T15:44:11.556Z,2.10
2019-02-24T15:49:17.048Z,1.87
2019-02-24T15:54:22.017Z,1.90
2019-02-24T15:59:27.165Z,1.80
2019-02-24T16:04:32.188Z,1.50
2019-02-24T16:09:37.036Z,1.73
2019-02-24T16:14:42.308Z,1.80
2019-02-24T16:19:47.677Z,1.70
2019-02-24T16:24:52.953Z,1.67
2019-02-24T16:29:58.124Z,1.70
2019-02-24T16:35:04.305Z,1.60
2019-02-24T16:40:11.939Z,2.20
2019-02-24T16:45:17.134Z,1.63
2019-02-24T16:50:22.109Z,1.70
2019-02-24T16:55:27.153Z,1.47
2019-02-24T17:00:32.079Z,1.67
2019-02-24T17:05:37.993Z,1.73
2019-02-24T17:10:43.074Z,1.90
2019-02-24T17:15:48.279Z,1.97
2019-02-24T17:20:53.345Z,2.07
2019-02-24T17:25:58.457Z,2.10
2019-02-24T17:31:03.678Z,1.60
2019-02-24T17:36:08.639Z,1.80
2019-02-24T17:41:13.739Z,2.20
2019-02-24T17:46:21.020Z,2.33
2019-02-24T17:51:26.170Z,2.67
2019-02-24T17:56:31.328Z,2.63
2019-02-24T18:01:36.588Z,2.33
2019-02-24T18:06:41.484Z,2.40
2019-02-24T18:11:46.458Z,2.13
2019-02-24T18:16:51.710Z,1.90
2019-02-24T18:21:57.129Z,1.83
2019-02-24T18:27:02.059Z,2.00
2019-02-24T18:32:06.999Z,2.00
2019-02-24T18:37:11.917Z,2.37
2019-02-24T18:42:17.216Z,2.10
2019-02-24T18:47:22.460Z,2.17
2019-02-24T18:52:27.533Z,2.30
2019-02-24T18:57:32.550Z,2.37
2019-02-24T19:02:37.733Z,2.17
2019-02-24T19:07:42.941Z,2.67
2019-02-24T19:12:48.153Z,2.50
2019-02-24T19:17:53.216Z,4.13
2019-02-24T19:22:58.426Z,3.00
2019-02-24T19:28:03.333Z,1.97
2019-02-24T19:33:08.295Z,2.30
2019-02-24T19:38:13.189Z,2.90
2019-02-24T19:43:18.196Z,3.10
2019-02-24T19:48:23.202Z,3.17
2019-02-24T19:53:28.621Z,3.10
2019-02-24T19:58:33.792Z,3.00
2019-02-24T20:03:38.980Z,3.10
2019-02-24T20:08:44.206Z,3.37
2019-02-24T20:13:49.096Z,3.93
2019-02-24T20:18:54.971Z,4.07
2019-02-24T20:24:00.032Z,3.93
2019-02-24T20:29:05.496Z,6.17
2019-02-24T20:34:10.365Z,8.93
2019-02-24T20:39:15.189Z,7.07
2019-02-24T20:44:20.012Z,3.57
2019-02-24T20:49:25.493Z,2.57
2019-02-24T20:54:30.405Z,2.77
2019-02-24T20:59:35.998Z,3.60
2019-02-24T21:04:41.249Z,3.10
2019-02-24T21:09:46.189Z,2.90
2019-02-24T21:14:51.557Z,2.77
2019-02-24T21:19:56.827Z,3.00
2019-02-24T21:25:01.723Z,2.93
2019-02-24T21:30:07.142Z,3.60
2019-02-24T21:35:12.454Z,3.00
2019-02-24T21:40:17.634Z,2.60
2019-02-24T21:45:22.465Z,2.47
2019-02-24T21:50:27.765Z,2.43
2019-02-24T21:55:33.229Z,2.50
2019-02-24T22:00:38.556Z,1.93
2019-02-24T22:05:43.782Z,1.97
2019-02-24T22:10:49.185Z,2.23
2019-02-24T22:15:54.498Z,2.70
2019-02-24T22:20:59.695Z,2.53
2019-02-24T22:26:04.993Z,3.07
2019-02-24T22:31:09.937Z,2.97
2019-02-24T22:36:15.145Z,3.00
2019-02-24T22:41:20.234Z,2.90
2019-02-24T22:46:25.112Z,3.50
2019-02-24T22:51:30.423Z,3.83
2019-02-24T22:56:35.562Z,3.50
2019-02-24T23:01:42.482Z,3.97
2019-02-24T23:06:47.380Z,3.47
2019-02-24T23:11:52.546Z,3.67
2019-02-24T23:16:57.508Z,3.30
2019-02-24T23:22:02.739Z,2.87
2019-02-24T23:27:07.623Z,2.73
2019-02-24T23:32:12.876Z,4.17
2019-02-24T23:37:17.830Z,3.70
2019-02-24T23:42:22.779Z,4.03
2019-02-24T23:47:27.660Z,4.13
2019-02-24T23:52:33.295Z,3.40
2019-02-24T23:57:38.176Z,3.80
